PWSweather.com
Personal Weather Stations
Station Observations
GEELONGWX1
Bell Post Hill, GeelongAU

Bell Post HillGeelongAU

Lat: -38.101, Lon: 144.326

Elevation: 204

Station Type: Davis Vantage Pro2

http://www.geelongweather.com

High Low Average
Temperature 55.7°F13.2°F 42.1°F5.6°F 48.4°F9.1°F
Dew Point 48.8°F9.3°F 39.7°F4.3°F 44.3°F6.8°F
Winds 11.5 mph -18.5 mph - 1.2 mph 1.9 mph 4.4 mph 7.1 mph
Wind Gusts 17.3 mph27.8 mph 1.2 mph1.9 mph 7.2 mph11.6 mph
Humidity 93% 74% 86%
Pressure 30.12 in1020.00 in 30.00 in1015.90 in -
Precipitation 0.03 in0.80 in - -
Hour Temp Dew Point Humidity Winds Wind Gusts Pressure Precip Precip Rate Daily Precip Total
12:00 AM 47.9°F8.8°C 44.5°F6.9°C 88% 3.5 mph SSW5.6 kmh SSW 6.9 mph11.1 kmh 30.12 in1020.0 mb - 0.00 in0.0 mm 0.00 in0.0 mm
12:10 AM 47.9°F8.8°C 44.5°F6.9°C 88% 3.5 mph S5.6 kmh S 9.2 mph14.8 kmh 30.12 in1020.0 mb - 0.00 in0.0 mm 0.00 in0.0 mm
12:20 AM 47.9°F8.8°C 44.8°F7.1°C 89% 3.5 mph SSW5.6 kmh SSW 6.9 mph11.1 kmh 30.12 in1020.0 mb - 0.01 in0.3 mm 0.01 in0.3 mm
12:30 AM 48.0°F8.9°C 44.9°F7.2°C 89% 6.9 mph SW11.1 kmh SW 11.5 mph18.5 kmh 30.11 in1019.6 mb - 0.00 in0.0 mm 0.01 in0.3 mm
12:40 AM 47.9°F8.8°C 44.8°F7.1°C 89% 4.6 mph SSW7.4 kmh SSW 6.9 mph11.1 kmh 30.12 in1020.0 mb - 0.00 in0.0 mm 0.01 in0.3 mm
12:50 AM 47.7°F8.7°C 44.6°F7.0°C 89% 3.5 mph SSW5.6 kmh SSW 5.8 mph9.3 kmh 30.11 in1019.6 mb - 0.00 in0.0 mm 0.01 in0.3 mm
01:00 AM 47.5°F8.6°C 44.4°F6.9°C 89% 3.5 mph SW5.6 kmh SW 5.8 mph9.3 kmh 30.11 in1019.6 mb - 0.00 in0.0 mm 0.01 in0.3 mm
01:10 AM 47.2°F8.4°C 44.2°F6.8°C 89% 2.3 mph S3.7 kmh S 3.5 mph5.6 kmh 30.11 in1019.6 mb - 0.00 in0.0 mm 0.01 in0.3 mm
01:20 AM 47.0°F8.3°C 44.0°F6.7°C 89% 4.6 mph SW7.4 kmh SW 8.1 mph13.0 kmh 30.11 in1019.6 mb - 0.00 in0.0 mm 0.01 in0.3 mm
01:30 AM 47.0°F8.3°C 44.2°F6.8°C 90% 3.5 mph SW5.6 kmh SW 5.8 mph9.3 kmh 30.11 in1019.6 mb - 0.00 in0.0 mm 0.01 in0.3 mm
01:40 AM 46.9°F8.3°C 44.1°F6.7°C 90% 2.3 mph SW3.7 kmh SW 3.5 mph5.6 kmh 30.11 in1019.6 mb - 0.00 in0.0 mm 0.01 in0.3 mm
01:50 AM 46.6°F8.1°C 43.9°F6.6°C 90% 2.3 mph SW3.7 kmh SW 4.6 mph7.4 kmh 30.11 in1019.6 mb - 0.00 in0.0 mm 0.01 in0.3 mm
02:00 AM 46.5°F8.1°C 43.7°F6.5°C 90% 2.3 mph SW3.7 kmh SW 3.5 mph5.6 kmh 30.11 in1019.6 mb - 0.00 in0.0 mm 0.01 in0.3 mm
02:10 AM 46.4°F8.0°C 43.6°F6.4°C 90% 4.6 mph SW7.4 kmh SW 6.9 mph11.1 kmh 30.11 in1019.6 mb - 0.00 in0.0 mm 0.01 in0.3 mm
02:20 AM 46.3°F7.9°C 43.5°F6.4°C 90% 3.5 mph SW5.6 kmh SW 6.9 mph11.1 kmh 30.11 in1019.6 mb - 0.00 in0.0 mm 0.01 in0.3 mm
02:30 AM 46.3°F7.9°C 43.5°F6.4°C 90% 3.5 mph SW5.6 kmh SW 6.9 mph11.1 kmh 30.10 in1019.3 mb - 0.00 in0.0 mm 0.01 in0.3 mm
02:40 AM 46.3°F7.9°C 43.5°F6.4°C 90% 3.5 mph SW5.6 kmh SW 5.8 mph9.3 kmh 30.10 in1019.3 mb - 0.00 in0.0 mm 0.01 in0.3 mm
02:50 AM 46.1°F7.8°C 43.3°F6.3°C 90% 3.5 mph SW5.6 kmh SW 5.8 mph9.3 kmh 30.10 in1019.3 mb - 0.00 in0.0 mm 0.01 in0.3 mm
03:00 AM 46.0°F7.8°C 43.5°F6.4°C 91% 2.3 mph SW3.7 kmh SW 3.5 mph5.6 kmh 30.09 in1019.0 mb - 0.00 in0.0 mm 0.01 in0.3 mm
03:10 AM 46.0°F7.8°C 43.5°F6.4°C 91% 3.5 mph SW5.6 kmh SW 5.8 mph9.3 kmh 30.09 in1019.0 mb - 0.00 in0.0 mm 0.01 in0.3 mm
03:20 AM 45.8°F7.7°C 43.0°F6.1°C 90% 1.2 mph SW1.9 kmh SW 4.6 mph7.4 kmh 30.09 in1019.0 mb - 0.00 in0.0 mm 0.01 in0.3 mm
03:30 AM 45.5°F7.5°C 42.8°F6.0°C 90% 1.2 mph SSW1.9 kmh SSW 3.5 mph5.6 kmh 30.09 in1019.0 mb - 0.00 in0.0 mm 0.01 in0.3 mm
03:40 AM 45.3°F7.4°C 42.8°F6.0°C 91% 2.3 mph SW3.7 kmh SW 5.8 mph9.3 kmh 30.09 in1019.0 mb - 0.00 in0.0 mm 0.01 in0.3 mm
03:50 AM 45.0°F7.2°C 42.3°F5.7°C 90% 2.3 mph SW3.7 kmh SW 3.5 mph5.6 kmh 30.08 in1018.6 mb - 0.00 in0.0 mm 0.01 in0.3 mm
04:00 AM 44.8°F7.1°C 42.0°F5.6°C 90% 1.2 mph SSW1.9 kmh SSW 3.5 mph5.6 kmh 30.09 in1019.0 mb - 0.00 in0.0 mm 0.01 in0.3 mm
04:10 AM 44.6°F7.0°C 41.8°F5.4°C 90% 1.2 mph SW1.9 kmh SW 1.2 mph1.9 kmh 30.09 in1019.0 mb - 0.00 in0.0 mm 0.01 in0.3 mm
04:20 AM 44.4°F6.9°C 41.7°F5.4°C 90% 1.2 mph SW1.9 kmh SW 2.3 mph3.7 kmh 30.09 in1019.0 mb - 0.00 in0.0 mm 0.01 in0.3 mm
04:30 AM 44.5°F6.9°C 42.0°F5.6°C 91% 3.5 mph SW5.6 kmh SW 3.5 mph5.6 kmh 30.09 in1019.0 mb - 0.00 in0.0 mm 0.01 in0.3 mm
04:40 AM 44.8°F7.1°C 42.3°F5.7°C 91% 2.3 mph SW3.7 kmh SW 2.3 mph3.7 kmh 30.09 in1019.0 mb - 0.00 in0.0 mm 0.01 in0.3 mm
04:50 AM 45.0°F7.2°C 42.5°F5.8°C 91% 1.2 mph SSW1.9 kmh SSW 3.5 mph5.6 kmh 30.09 in1019.0 mb - 0.00 in0.0 mm 0.01 in0.3 mm
05:00 AM 45.0°F7.2°C 42.5°F5.8°C 91% 1.2 mph SSW1.9 kmh SSW 2.3 mph3.7 kmh 30.09 in1019.0 mb - 0.00 in0.0 mm 0.01 in0.3 mm
05:10 AM 44.8°F7.1°C 42.3°F5.7°C 91% 2.3 mph SW3.7 kmh SW 3.5 mph5.6 kmh 30.09 in1019.0 mb - 0.00 in0.0 mm 0.01 in0.3 mm
05:20 AM 44.5°F6.9°C 42.0°F5.6°C 91% 2.3 mph SSW3.7 kmh SSW 3.5 mph5.6 kmh 30.09 in1019.0 mb - 0.00 in0.0 mm 0.01 in0.3 mm
05:30 AM 44.2°F6.8°C 41.8°F5.4°C 91% 2.3 mph SW3.7 kmh SW 3.5 mph5.6 kmh 30.09 in1019.0 mb - 0.00 in0.0 mm 0.01 in0.3 mm
05:40 AM 43.9°F6.6°C 41.4°F5.2°C 91% 4.6 mph SW7.4 kmh SW 5.8 mph9.3 kmh 30.09 in1019.0 mb - 0.00 in0.0 mm 0.01 in0.3 mm
05:50 AM 43.7°F6.5°C 41.3°F5.2°C 91% 3.5 mph SSW5.6 kmh SSW 4.6 mph7.4 kmh 30.09 in1019.0 mb - 0.00 in0.0 mm 0.01 in0.3 mm
06:00 AM 43.6°F6.4°C 41.1°F5.1°C 91% 4.6 mph SW7.4 kmh SW 4.6 mph7.4 kmh 30.09 in1019.0 mb - 0.00 in0.0 mm 0.01 in0.3 mm
06:10 AM 43.4°F6.3°C 40.9°F4.9°C 91% 3.5 mph SW5.6 kmh SW 6.9 mph11.1 kmh 30.09 in1019.0 mb - 0.00 in0.0 mm 0.01 in0.3 mm
06:20 AM 43.1°F6.2°C 40.7°F4.8°C 91% 3.5 mph SW5.6 kmh SW 4.6 mph7.4 kmh 30.09 in1019.0 mb - 0.00 in0.0 mm 0.01 in0.3 mm
06:30 AM 42.9°F6.1°C 40.5°F4.7°C 91% 3.5 mph SSW5.6 kmh SSW 4.6 mph7.4 kmh 30.09 in1019.0 mb - 0.00 in0.0 mm 0.01 in0.3 mm
06:40 AM 42.6°F5.9°C 40.2°F4.6°C 91% 3.5 mph SW5.6 kmh SW 3.5 mph5.6 kmh 30.09 in1019.0 mb - 0.00 in0.0 mm 0.01 in0.3 mm
06:50 AM 42.4°F5.8°C 40.0°F4.4°C 91% 3.5 mph SSW5.6 kmh SSW 4.6 mph7.4 kmh 30.10 in1019.3 mb - 0.00 in0.0 mm 0.01 in0.3 mm
07:00 AM 42.2°F5.7°C 39.8°F4.3°C 91% 2.3 mph SSW3.7 kmh SSW 5.8 mph9.3 kmh 30.10 in1019.3 mb - 0.00 in0.0 mm 0.01 in0.3 mm
07:10 AM 42.1°F5.6°C 39.7°F4.3°C 91% 3.5 mph SSW5.6 kmh SSW 4.6 mph7.4 kmh 30.10 in1019.3 mb - 0.00 in0.0 mm 0.01 in0.3 mm
07:20 AM 42.2°F5.7°C 39.8°F4.3°C 91% 3.5 mph SSW5.6 kmh SSW 5.8 mph9.3 kmh 30.10 in1019.3 mb - 0.00 in0.0 mm 0.01 in0.3 mm
07:30 AM 42.5°F5.8°C 40.3°F4.6°C 92% 4.6 mph SW7.4 kmh SW 6.9 mph11.1 kmh 30.10 in1019.3 mb - 0.00 in0.0 mm 0.01 in0.3 mm
07:40 AM 43.1°F6.2°C 40.9°F4.9°C 92% 5.8 mph SW9.3 kmh SW 5.8 mph9.3 kmh 30.10 in1019.3 mb - 0.00 in0.0 mm 0.01 in0.3 mm
07:50 AM 43.5°F6.4°C 41.3°F5.2°C 92% 4.6 mph SW7.4 kmh SW 11.5 mph18.5 kmh 30.11 in1019.6 mb - 0.00 in0.0 mm 0.01 in0.3 mm
08:00 AM 43.9°F6.6°C 41.8°F5.4°C 92% 5.8 mph SSW9.3 kmh SSW 8.1 mph13.0 kmh 30.11 in1019.6 mb - 0.00 in0.0 mm 0.01 in0.3 mm
08:10 AM 44.8°F7.1°C 42.9°F6.1°C 93% 4.6 mph SW7.4 kmh SW 4.6 mph7.4 kmh 30.11 in1019.6 mb - 0.00 in0.0 mm 0.01 in0.3 mm
08:20 AM 45.8°F7.7°C 43.9°F6.6°C 93% 6.9 mph SSW11.1 kmh SSW 11.5 mph18.5 kmh 30.11 in1019.6 mb - 0.00 in0.0 mm 0.01 in0.3 mm
08:30 AM 46.5°F8.1°C 44.6°F7.0°C 93% 6.9 mph SSW11.1 kmh SSW 11.5 mph18.5 kmh 30.11 in1019.6 mb - 0.00 in0.0 mm 0.01 in0.3 mm
08:40 AM 46.5°F8.1°C 44.3°F6.8°C 92% 4.6 mph SW7.4 kmh SW 5.8 mph9.3 kmh 30.11 in1019.6 mb - 0.00 in0.0 mm 0.01 in0.3 mm
08:50 AM 47.1°F8.4°C 45.2°F7.3°C 93% 6.9 mph SW11.1 kmh SW 11.5 mph18.5 kmh 30.11 in1019.6 mb - 0.00 in0.0 mm 0.01 in0.3 mm
09:00 AM 47.6°F8.7°C 45.4°F7.4°C 92% 5.8 mph SSW9.3 kmh SSW 9.2 mph14.8 kmh 30.11 in1019.6 mb - 0.00 in0.0 mm 0.01 in0.3 mm
09:10 AM 48.4°F9.1°C 46.2°F7.9°C 92% 6.9 mph SW11.1 kmh SW 9.2 mph14.8 kmh 30.11 in1019.6 mb - 0.00 in0.0 mm 0.01 in0.3 mm
09:20 AM 49.4°F9.7°C 47.2°F8.4°C 92% 6.9 mph SSW11.1 kmh SSW 11.5 mph18.5 kmh 30.11 in1019.6 mb - 0.00 in0.0 mm 0.01 in0.3 mm
09:30 AM 49.9°F9.9°C 47.4°F8.6°C 91% 5.8 mph SSW9.3 kmh SSW 9.2 mph14.8 kmh 30.11 in1019.6 mb - 0.00 in0.0 mm 0.01 in0.3 mm
09:40 AM 50.2°F10.1°C 47.1°F8.4°C 89% 5.8 mph S9.3 kmh S 13.8 mph22.2 kmh 30.11 in1019.6 mb - 0.00 in0.0 mm 0.01 in0.3 mm
09:50 AM 50.1°F10.1°C 46.7°F8.2°C 88% 6.9 mph SSW11.1 kmh SSW 10.4 mph16.7 kmh 30.11 in1019.6 mb - 0.00 in0.0 mm 0.01 in0.3 mm
10:00 AM 50.6°F10.3°C 46.8°F8.2°C 87% 5.8 mph SW9.3 kmh SW 11.5 mph18.5 kmh 30.11 in1019.6 mb - 0.00 in0.0 mm 0.01 in0.3 mm
10:10 AM 51.1°F10.6°C 47.1°F8.4°C 86% 4.6 mph SSW7.4 kmh SSW 6.9 mph11.1 kmh 30.11 in1019.6 mb - 0.00 in0.0 mm 0.01 in0.3 mm
10:20 AM 51.9°F11.1°C 47.2°F8.4°C 84% 9.2 mph SSW14.8 kmh SSW 15.0 mph24.1 kmh 30.10 in1019.3 mb - 0.00 in0.0 mm 0.01 in0.3 mm
10:30 AM 52.3°F11.3°C 47.3°F8.5°C 83% 2.3 mph SW3.7 kmh SW 3.5 mph5.6 kmh 30.10 in1019.3 mb - 0.00 in0.0 mm 0.01 in0.3 mm
10:40 AM 53.2°F11.8°C 48.2°F9.0°C 83% 6.9 mph SW11.1 kmh SW 10.4 mph16.7 kmh 30.09 in1019.0 mb - 0.00 in0.0 mm 0.01 in0.3 mm
10:50 AM 53.0°F11.7°C 47.0°F8.3°C 80% 5.8 mph S9.3 kmh S 11.5 mph18.5 kmh 30.09 in1019.0 mb - 0.00 in0.0 mm 0.01 in0.3 mm
11:00 AM 52.9°F11.6°C 46.9°F8.3°C 80% 8.1 mph SW13.0 kmh SW 12.7 mph20.4 kmh 30.09 in1019.0 mb - 0.00 in0.0 mm 0.01 in0.3 mm
11:10 AM 53.5°F11.9°C 47.5°F8.6°C 80% 5.8 mph S9.3 kmh S 10.4 mph16.7 kmh 30.08 in1018.6 mb - 0.00 in0.0 mm 0.01 in0.3 mm
11:20 AM 54.2°F12.3°C 47.5°F8.6°C 78% 6.9 mph S11.1 kmh S 9.2 mph14.8 kmh 30.08 in1018.6 mb - 0.00 in0.0 mm 0.01 in0.3 mm
11:30 AM 53.8°F12.1°C 46.8°F8.2°C 77% 5.8 mph S9.3 kmh S 11.5 mph18.5 kmh 30.08 in1018.6 mb - 0.00 in0.0 mm 0.01 in0.3 mm
11:40 AM 54.3°F12.4°C 47.6°F8.7°C 78% 5.8 mph SSW9.3 kmh SSW 8.1 mph13.0 kmh 30.07 in1018.3 mb - 0.00 in0.0 mm 0.01 in0.3 mm
11:50 AM 54.6°F12.6°C 47.2°F8.4°C 76% 11.5 mph SSW18.5 kmh SSW 17.3 mph27.8 kmh 30.07 in1018.3 mb - 0.00 in0.0 mm 0.01 in0.3 mm
12:00 PM 54.5°F12.5°C 47.4°F8.6°C 77% 5.8 mph S9.3 kmh S 8.1 mph13.0 kmh 30.07 in1018.3 mb - 0.00 in0.0 mm 0.01 in0.3 mm
12:10 PM 54.3°F12.4°C 47.6°F8.7°C 78% 6.9 mph SSW11.1 kmh SSW 9.2 mph14.8 kmh 30.06 in1017.9 mb - 0.00 in0.0 mm 0.01 in0.3 mm
12:20 PM 54.5°F12.5°C 48.8°F9.3°C 81% 6.9 mph SW11.1 kmh SW 9.2 mph14.8 kmh 30.06 in1017.9 mb - 0.00 in0.0 mm 0.01 in0.3 mm
12:30 PM 54.8°F12.7°C 48.4°F9.1°C 79% 8.1 mph SSW13.0 kmh SSW 13.8 mph22.2 kmh 30.05 in1017.6 mb - 0.00 in0.0 mm 0.01 in0.3 mm
12:40 PM 54.8°F12.7°C 48.1°F8.9°C 78% 4.6 mph SSW7.4 kmh SSW 8.1 mph13.0 kmh 30.05 in1017.6 mb - 0.00 in0.0 mm 0.01 in0.3 mm
12:50 PM 55.3°F12.9°C 48.2°F9.0°C 77% 6.9 mph S11.1 kmh S 11.5 mph18.5 kmh 30.04 in1017.3 mb - 0.00 in0.0 mm 0.01 in0.3 mm
01:00 PM 55.6°F13.1°C 48.1°F8.9°C 76% 10.4 mph S16.7 kmh S 12.7 mph20.4 kmh 30.03 in1016.9 mb - 0.00 in0.0 mm 0.01 in0.3 mm
01:10 PM 55.3°F12.9°C 47.2°F8.4°C 74% 8.1 mph SSW13.0 kmh SSW 11.5 mph18.5 kmh 30.03 in1016.9 mb - 0.00 in0.0 mm 0.01 in0.3 mm
01:20 PM 55.3°F12.9°C 47.2°F8.4°C 74% 8.1 mph S13.0 kmh S 11.5 mph18.5 kmh 30.03 in1016.9 mb - 0.00 in0.0 mm 0.01 in0.3 mm
01:30 PM 54.7°F12.6°C 47.3°F8.5°C 76% 9.2 mph SSW14.8 kmh SSW 13.8 mph22.2 kmh 30.03 in1016.9 mb - 0.00 in0.0 mm 0.01 in0.3 mm
01:40 PM 54.3°F12.4°C 46.9°F8.3°C 76% 10.4 mph S16.7 kmh S 11.5 mph18.5 kmh 30.03 in1016.9 mb - 0.00 in0.0 mm 0.01 in0.3 mm
01:50 PM 54.2°F12.3°C 47.2°F8.4°C 77% 8.1 mph SW13.0 kmh SW 12.7 mph20.4 kmh 30.02 in1016.6 mb - 0.00 in0.0 mm 0.01 in0.3 mm
02:00 PM 54.1°F12.3°C 47.0°F8.3°C 77% 8.1 mph SSW13.0 kmh SSW 11.5 mph18.5 kmh 30.02 in1016.6 mb - 0.00 in0.0 mm 0.01 in0.3 mm
02:10 PM 54.9°F12.7°C 47.8°F8.8°C 77% 6.9 mph SW11.1 kmh SW 12.7 mph20.4 kmh 30.02 in1016.6 mb - 0.00 in0.0 mm 0.01 in0.3 mm
02:20 PM 55.7°F13.2°C 48.6°F9.2°C 77% 5.8 mph SSW9.3 kmh SSW 10.4 mph16.7 kmh 30.02 in1016.6 mb - 0.00 in0.0 mm 0.01 in0.3 mm
02:30 PM 55.7°F13.2°C 47.9°F8.8°C 75% 8.1 mph SSW13.0 kmh SSW 16.1 mph25.9 kmh 30.02 in1016.6 mb - 0.00 in0.0 mm 0.01 in0.3 mm
02:40 PM 55.2°F12.9°C 47.8°F8.8°C 76% 6.9 mph S11.1 kmh S 11.5 mph18.5 kmh 30.02 in1016.6 mb - 0.00 in0.0 mm 0.01 in0.3 mm
02:50 PM 54.3°F12.4°C 47.9°F8.8°C 79% 6.9 mph SSW11.1 kmh SSW 9.2 mph14.8 kmh 30.02 in1016.6 mb - 0.01 in0.3 mm 0.02 in0.5 mm
03:00 PM 53.6°F12.0°C 47.6°F8.7°C 80% 2.3 mph S3.7 kmh S 6.9 mph11.1 kmh 30.01 in1016.3 mb - 0.00 in0.0 mm 0.02 in0.5 mm
03:10 PM 53.4°F11.9°C 47.7°F8.7°C 81% 4.6 mph SSW7.4 kmh SSW 9.2 mph14.8 kmh 30.01 in1016.3 mb - 0.00 in0.0 mm 0.02 in0.5 mm
03:20 PM 53.1°F11.7°C 47.4°F8.6°C 81% 5.8 mph SW9.3 kmh SW 10.4 mph16.7 kmh 30.01 in1016.3 mb - 0.00 in0.0 mm 0.02 in0.5 mm
03:30 PM 52.9°F11.6°C 47.6°F8.7°C 82% 5.8 mph SW9.3 kmh SW 10.4 mph16.7 kmh 30.01 in1016.3 mb - 0.00 in0.0 mm 0.02 in0.5 mm
03:40 PM 53.1°F11.7°C 47.7°F8.7°C 82% 5.8 mph SW9.3 kmh SW 10.4 mph16.7 kmh 30.01 in1016.3 mb - 0.00 in0.0 mm 0.02 in0.5 mm
03:50 PM 53.3°F11.8°C 47.9°F8.8°C 82% 5.8 mph SSW9.3 kmh SSW 10.4 mph16.7 kmh 30.01 in1016.3 mb - 0.00 in0.0 mm 0.02 in0.5 mm
04:00 PM 53.0°F11.7°C 47.4°F8.6°C 81% 6.9 mph SSW11.1 kmh SSW 13.8 mph22.2 kmh 30.01 in1016.3 mb - 0.00 in0.0 mm 0.02 in0.5 mm
04:10 PM 52.8°F11.6°C 47.4°F8.6°C 82% 4.6 mph SW7.4 kmh SW 5.8 mph9.3 kmh 30.01 in1016.3 mb - 0.01 in0.3 mm 0.03 in0.8 mm
04:20 PM 52.8°F11.6°C 47.8°F8.8°C 83% 5.8 mph S9.3 kmh S 10.4 mph16.7 kmh 30.00 in1015.9 mb - 0.00 in0.0 mm 0.03 in0.8 mm
04:30 PM 52.3°F11.3°C 47.0°F8.3°C 82% 10.4 mph S16.7 kmh S 12.7 mph20.4 kmh 30.00 in1015.9 mb - 0.00 in0.0 mm 0.03 in0.8 mm
04:40 PM 51.9°F11.1°C 46.3°F7.9°C 81% 4.6 mph S7.4 kmh S 8.1 mph13.0 kmh 30.01 in1016.3 mb - 0.00 in0.0 mm 0.03 in0.8 mm
04:50 PM 51.4°F10.8°C 45.8°F7.7°C 81% 4.6 mph SW7.4 kmh SW 11.5 mph18.5 kmh 30.01 in1016.3 mb - 0.00 in0.0 mm 0.03 in0.8 mm
05:00 PM 51.0°F10.6°C 45.4°F7.4°C 81% 6.9 mph SSW11.1 kmh SSW 9.2 mph14.8 kmh 30.01 in1016.3 mb - 0.00 in0.0 mm 0.03 in0.8 mm
05:10 PM 50.7°F10.4°C 45.1°F7.3°C 81% 4.6 mph SSW7.4 kmh SSW 5.8 mph9.3 kmh 30.01 in1016.3 mb - 0.00 in0.0 mm 0.03 in0.8 mm
05:20 PM 50.5°F10.3°C 45.2°F7.3°C 82% 4.6 mph S7.4 kmh S 6.9 mph11.1 kmh 30.01 in1016.3 mb - 0.00 in0.0 mm 0.03 in0.8 mm
05:30 PM 50.3°F10.2°C 45.0°F7.2°C 82% 2.3 mph S3.7 kmh S 4.6 mph7.4 kmh 30.02 in1016.6 mb - 0.00 in0.0 mm 0.03 in0.8 mm
05:40 PM 50.0°F10.0°C 45.0°F7.2°C 83% 3.5 mph SSW5.6 kmh SSW 6.9 mph11.1 kmh 30.02 in1016.6 mb - 0.00 in0.0 mm 0.03 in0.8 mm
05:50 PM 49.8°F9.9°C 44.8°F7.1°C 83% 3.5 mph SSW5.6 kmh SSW 3.5 mph5.6 kmh 30.02 in1016.6 mb - 0.00 in0.0 mm 0.03 in0.8 mm
06:00 PM 49.5°F9.7°C 44.9°F7.2°C 84% 4.6 mph S7.4 kmh S 6.9 mph11.1 kmh 30.02 in1016.6 mb - 0.00 in0.0 mm 0.03 in0.8 mm
06:10 PM 49.3°F9.6°C 44.7°F7.1°C 84% 4.6 mph SSW7.4 kmh SSW 9.2 mph14.8 kmh 30.02 in1016.6 mb - 0.00 in0.0 mm 0.03 in0.8 mm
06:20 PM 49.1°F9.5°C 44.5°F6.9°C 84% 4.6 mph SW7.4 kmh SW 9.2 mph14.8 kmh 30.03 in1016.9 mb - 0.00 in0.0 mm 0.03 in0.8 mm
06:30 PM 48.8°F9.3°C 44.2°F6.8°C 84% 4.6 mph SW7.4 kmh SW 6.9 mph11.1 kmh 30.03 in1016.9 mb - 0.00 in0.0 mm 0.03 in0.8 mm
06:40 PM 48.6°F9.2°C 44.0°F6.7°C 84% 1.2 mph SW1.9 kmh SW 3.5 mph5.6 kmh 30.03 in1016.9 mb - 0.00 in0.0 mm 0.03 in0.8 mm
06:50 PM 48.4°F9.1°C 44.1°F6.7°C 85% 4.6 mph SSW7.4 kmh SSW 6.9 mph11.1 kmh 30.03 in1016.9 mb - 0.00 in0.0 mm 0.03 in0.8 mm
07:00 PM 48.1°F8.9°C 43.8°F6.6°C 85% 3.5 mph S5.6 kmh S 4.6 mph7.4 kmh 30.04 in1017.3 mb - 0.00 in0.0 mm 0.03 in0.8 mm
07:10 PM 47.9°F8.8°C 43.6°F6.4°C 85% 1.2 mph S1.9 kmh S 4.6 mph7.4 kmh 30.04 in1017.3 mb - 0.00 in0.0 mm 0.03 in0.8 mm
07:20 PM 47.8°F8.8°C 43.5°F6.4°C 85% 2.3 mph SSW3.7 kmh SSW 3.5 mph5.6 kmh 30.05 in1017.6 mb - 0.00 in0.0 mm 0.03 in0.8 mm
07:30 PM 47.7°F8.7°C 43.7°F6.5°C 86% 3.5 mph SSW5.6 kmh SSW 5.8 mph9.3 kmh 30.05 in1017.6 mb - 0.00 in0.0 mm 0.03 in0.8 mm
07:40 PM 47.6°F8.7°C 43.6°F6.4°C 86% 1.2 mph SSW1.9 kmh SSW 3.5 mph5.6 kmh 30.05 in1017.6 mb - 0.00 in0.0 mm 0.03 in0.8 mm
07:50 PM 47.5°F8.6°C 43.5°F6.4°C 86% 1.2 mph SSW1.9 kmh SSW 3.5 mph5.6 kmh 30.05 in1017.6 mb - 0.00 in0.0 mm 0.03 in0.8 mm
08:00 PM 47.4°F8.6°C 43.4°F6.3°C 86% 2.3 mph SSW3.7 kmh SSW 5.8 mph9.3 kmh 30.05 in1017.6 mb - 0.00 in0.0 mm 0.03 in0.8 mm
08:10 PM 47.2°F8.4°C 43.2°F6.2°C 86% 2.3 mph SW3.7 kmh SW 4.6 mph7.4 kmh 30.05 in1017.6 mb - 0.00 in0.0 mm 0.03 in0.8 mm
08:20 PM 47.1°F8.4°C 43.4°F6.3°C 87% 2.3 mph SSW3.7 kmh SSW 5.8 mph9.3 kmh 30.05 in1017.6 mb - 0.00 in0.0 mm 0.03 in0.8 mm
08:30 PM 46.8°F8.2°C 42.8°F6.0°C 86% 3.5 mph SSW5.6 kmh SSW 6.9 mph11.1 kmh 30.05 in1017.6 mb - 0.00 in0.0 mm 0.03 in0.8 mm
08:40 PM 46.5°F8.1°C 42.9°F6.1°C 87% 3.5 mph SSW5.6 kmh SSW 6.9 mph11.1 kmh 30.06 in1017.9 mb - 0.00 in0.0 mm 0.03 in0.8 mm
08:50 PM 46.4°F8.0°C 42.7°F5.9°C 87% 2.3 mph SSW3.7 kmh SSW 6.9 mph11.1 kmh 30.05 in1017.6 mb - 0.00 in0.0 mm 0.03 in0.8 mm
09:00 PM 46.2°F7.9°C 42.5°F5.8°C 87% 2.3 mph SSW3.7 kmh SSW 3.5 mph5.6 kmh 30.06 in1017.9 mb - 0.00 in0.0 mm 0.03 in0.8 mm
09:10 PM 46.2°F7.9°C 42.8°F6.0°C 88% 3.5 mph S5.6 kmh S 3.5 mph5.6 kmh 30.06 in1017.9 mb - 0.00 in0.0 mm 0.03 in0.8 mm
09:20 PM 46.1°F7.8°C 42.7°F5.9°C 88% 3.5 mph S5.6 kmh S 4.6 mph7.4 kmh 30.06 in1017.9 mb - 0.00 in0.0 mm 0.03 in0.8 mm
09:30 PM 45.9°F7.7°C 42.3°F5.7°C 87% 1.2 mph S1.9 kmh S 1.2 mph1.9 kmh 30.06 in1017.9 mb - 0.00 in0.0 mm 0.03 in0.8 mm
09:40 PM 45.8°F7.7°C 42.1°F5.6°C 87% 1.2 mph SSW1.9 kmh SSW 3.5 mph5.6 kmh 30.06 in1017.9 mb - 0.00 in0.0 mm 0.03 in0.8 mm
09:50 PM 45.5°F7.5°C 41.8°F5.4°C 87% 2.3 mph SW3.7 kmh SW 2.3 mph3.7 kmh 30.06 in1017.9 mb - 0.00 in0.0 mm 0.03 in0.8 mm
10:00 PM 45.2°F7.3°C 41.6°F5.3°C 87% 2.3 mph SW3.7 kmh SW 3.5 mph5.6 kmh 30.06 in1017.9 mb - 0.00 in0.0 mm 0.03 in0.8 mm
10:10 PM 45.0°F7.2°C 41.6°F5.3°C 88% 2.3 mph SW3.7 kmh SW 4.6 mph7.4 kmh 30.06 in1017.9 mb - 0.00 in0.0 mm 0.03 in0.8 mm
10:20 PM 44.7°F7.1°C 41.4°F5.2°C 88% 2.3 mph SW3.7 kmh SW 3.5 mph5.6 kmh 30.06 in1017.9 mb - 0.00 in0.0 mm 0.03 in0.8 mm
10:30 PM 44.5°F6.9°C 41.2°F5.1°C 88% 2.3 mph SW3.7 kmh SW 3.5 mph5.6 kmh 30.06 in1017.9 mb - 0.00 in0.0 mm 0.03 in0.8 mm
10:40 PM 44.3°F6.8°C 41.0°F5.0°C 88% 4.6 mph SSW7.4 kmh SSW 8.1 mph13.0 kmh 30.06 in1017.9 mb - 0.00 in0.0 mm 0.03 in0.8 mm
10:50 PM 44.2°F6.8°C 40.8°F4.9°C 88% 3.5 mph SSW5.6 kmh SSW 4.6 mph7.4 kmh 30.05 in1017.6 mb - 0.00 in0.0 mm 0.03 in0.8 mm
11:00 PM 43.8°F6.6°C 40.5°F4.7°C 88% 3.5 mph SSW5.6 kmh SSW 4.6 mph7.4 kmh 30.05 in1017.6 mb - 0.00 in0.0 mm 0.03 in0.8 mm
11:10 PM 43.6°F6.4°C 40.3°F4.6°C 88% 3.5 mph S5.6 kmh S 4.6 mph7.4 kmh 30.05 in1017.6 mb - 0.00 in0.0 mm 0.03 in0.8 mm
11:20 PM 43.4°F6.3°C 40.4°F4.7°C 89% 3.5 mph SW5.6 kmh SW 3.5 mph5.6 kmh 30.05 in1017.6 mb - 0.00 in0.0 mm 0.03 in0.8 mm
11:30 PM 43.3°F6.3°C 40.3°F4.6°C 89% 3.5 mph SSW5.6 kmh SSW 3.5 mph5.6 kmh 30.05 in1017.6 mb - 0.00 in0.0 mm 0.03 in0.8 mm
11:40 PM 43.3°F6.3°C 40.3°F4.6°C 89% 2.3 mph SSW3.7 kmh SSW 4.6 mph7.4 kmh 30.05 in1017.6 mb - 0.00 in0.0 mm 0.03 in0.8 mm
11:50 PM 43.1°F6.2°C 40.1°F4.5°C 89% 2.3 mph SW3.7 kmh SW 4.6 mph7.4 kmh 30.05 in1017.6 mb - 0.00 in0.0 mm 0.03 in0.8 mm